createdAt,value
2018-07-20T00:01:32.110Z,15.50
2018-07-20T00:04:00.500Z,15.50
2018-07-20T00:06:28.896Z,15.50
2018-07-20T00:08:57.253Z,15.50
2018-07-20T00:11:25.623Z,15.40
2018-07-20T00:13:53.965Z,15.50
2018-07-20T00:16:22.357Z,15.40
2018-07-20T00:18:50.775Z,15.40
2018-07-20T00:21:19.168Z,15.30
2018-07-20T00:23:47.548Z,15.30
2018-07-20T00:26:15.872Z,15.30
2018-07-20T00:28:44.506Z,15.20
2018-07-20T00:31:12.873Z,15.10
2018-07-20T00:33:41.192Z,14.90
2018-07-20T00:36:09.533Z,14.90
2018-07-20T00:38:37.871Z,14.80
2018-07-20T00:41:06.193Z,14.80
2018-07-20T00:43:34.557Z,14.80
2018-07-20T00:46:02.938Z,14.70
2018-07-20T00:48:31.427Z,14.70
2018-07-20T00:50:59.776Z,14.70
2018-07-20T00:53:28.090Z,14.70
2018-07-20T00:55:56.453Z,14.60
2018-07-20T00:58:24.849Z,14.60
2018-07-20T01:00:53.178Z,13.30
2018-07-20T01:03:21.548Z,14.60
2018-07-20T01:05:49.879Z,14.50
2018-07-20T01:08:18.259Z,14.50
2018-07-20T01:10:46.566Z,14.40
2018-07-20T01:13:14.884Z,14.40
2018-07-20T01:15:43.242Z,14.40
2018-07-20T01:18:11.577Z,14.30
2018-07-20T01:20:39.954Z,14.20
2018-07-20T01:23:08.426Z,14.20
2018-07-20T01:25:36.758Z,14.20
2018-07-20T01:28:05.135Z,14.10
2018-07-20T01:30:33.473Z,14.20
2018-07-20T01:33:01.869Z,14.00
2018-07-20T01:35:30.206Z,14.00
2018-07-20T01:37:58.529Z,14.00
2018-07-20T01:40:26.934Z,13.90
2018-07-20T01:42:55.256Z,13.90
2018-07-20T01:45:23.557Z,13.80
2018-07-20T01:47:51.888Z,13.80
2018-07-20T01:50:20.277Z,13.70
2018-07-20T01:52:48.629Z,13.60
2018-07-20T01:55:16.935Z,13.60
2018-07-20T01:57:45.252Z,13.50
2018-07-20T02:00:13.602Z,13.60
2018-07-20T02:02:41.969Z,13.60
2018-07-20T02:05:10.320Z,13.40
2018-07-20T02:07:38.629Z,13.50
2018-07-20T02:10:06.957Z,13.50
2018-07-20T02:12:35.302Z,13.50
2018-07-20T02:15:03.638Z,13.40
2018-07-20T02:17:31.988Z,13.30
2018-07-20T02:20:00.309Z,13.30
2018-07-20T02:22:28.680Z,13.40
2018-07-20T02:24:57.029Z,13.50
2018-07-20T02:27:25.331Z,13.50
2018-07-20T02:29:53.651Z,13.50
2018-07-20T02:32:21.998Z,13.50
2018-07-20T02:34:50.313Z,13.60
2018-07-20T02:37:18.630Z,13.60
2018-07-20T02:39:46.959Z,13.60
2018-07-20T02:42:15.313Z,13.70
2018-07-20T02:44:43.609Z,13.70
2018-07-20T02:47:11.974Z,13.80
2018-07-20T02:49:40.500Z,13.90
2018-07-20T02:52:08.845Z,13.80
2018-07-20T02:54:37.158Z,13.80
2018-07-20T02:57:05.521Z,13.80
2018-07-20T02:59:33.866Z,13.60
2018-07-20T03:02:02.188Z,13.70
2018-07-20T03:04:30.546Z,13.70
2018-07-20T03:06:58.900Z,13.60
2018-07-20T03:09:27.206Z,13.60
2018-07-20T03:11:55.522Z,13.50
2018-07-20T03:14:23.889Z,13.50
2018-07-20T03:16:52.230Z,13.60
2018-07-20T03:19:20.787Z,13.50
2018-07-20T03:21:49.093Z,13.50
2018-07-20T03:24:17.425Z,13.50
2018-07-20T03:26:45.910Z,13.50
2018-07-20T03:29:14.318Z,13.40
2018-07-20T03:31:42.676Z,13.40
2018-07-20T03:34:11.029Z,13.30
2018-07-20T03:36:39.366Z,13.30
2018-07-20T03:41:36.899Z,13.50
2018-07-20T03:44:05.224Z,13.50
2018-07-20T03:46:33.556Z,13.40
2018-07-20T03:49:01.919Z,13.50
2018-07-20T03:51:30.197Z,13.50
2018-07-20T03:53:58.489Z,13.40
2018-07-20T03:56:26.966Z,13.40
2018-07-20T03:58:55.253Z,13.40
2018-07-20T04:01:23.585Z,13.40
2018-07-20T04:03:51.914Z,13.30
2018-07-20T04:06:20.342Z,13.20
2018-07-20T04:08:48.725Z,13.20
2018-07-20T04:11:17.102Z,13.20
2018-07-20T04:13:45.419Z,13.10
2018-07-20T04:16:13.759Z,13.10
2018-07-20T04:18:42.081Z,13.10
2018-07-20T04:21:10.550Z,13.00
2018-07-20T04:23:38.904Z,13.20
2018-07-20T04:26:07.210Z,13.10
2018-07-20T04:28:35.531Z,13.10
2018-07-20T04:31:03.848Z,13.10
2018-07-20T04:33:32.206Z,13.10
2018-07-20T04:36:00.545Z,13.10
2018-07-20T04:38:28.831Z,13.20
2018-07-20T04:40:57.140Z,13.20
2018-07-20T04:43:25.560Z,13.20
2018-07-20T04:45:53.897Z,13.20
2018-07-20T04:48:22.208Z,13.20
2018-07-20T04:50:50.543Z,13.30
2018-07-20T04:53:18.854Z,13.40
2018-07-20T04:55:47.199Z,13.40
2018-07-20T04:58:15.524Z,13.40
2018-07-20T05:00:43.872Z,13.40
2018-07-20T05:03:12.237Z,13.50
2018-07-20T05:05:40.576Z,13.50
2018-07-20T05:08:08.896Z,13.60
2018-07-20T05:10:37.276Z,13.60
2018-07-20T05:13:05.607Z,13.70
2018-07-20T05:15:33.907Z,13.70
2018-07-20T05:18:02.260Z,13.80
2018-07-20T05:20:30.580Z,13.80
2018-07-20T05:22:58.911Z,13.90
2018-07-20T05:25:27.254Z,13.90
2018-07-20T05:27:55.621Z,13.90
2018-07-20T05:30:23.956Z,14.10
2018-07-20T05:32:52.292Z,14.00
2018-07-20T05:35:20.613Z,14.10
2018-07-20T05:37:48.996Z,14.20
2018-07-20T05:40:17.274Z,14.30
2018-07-20T05:45:13.749Z,14.70
2018-07-20T05:47:42.112Z,15.00
2018-07-20T05:52:38.555Z,15.70
2018-07-20T05:55:06.938Z,16.10
2018-07-20T05:57:35.257Z,16.20
2018-07-20T06:00:03.677Z,16.50
2018-07-20T06:02:32.064Z,16.80
2018-07-20T06:05:00.397Z,17.10
2018-07-20T06:07:28.744Z,17.40
2018-07-20T06:09:57.052Z,17.50
2018-07-20T06:12:25.405Z,18.00
2018-07-20T06:14:53.750Z,18.20
2018-07-20T06:17:22.081Z,18.40
2018-07-20T06:19:50.437Z,18.60
2018-07-20T06:22:18.812Z,18.90
2018-07-20T06:24:47.144Z,19.10
2018-07-20T06:27:15.501Z,19.30
2018-07-20T06:29:43.849Z,19.50
2018-07-20T06:32:12.316Z,19.80
2018-07-20T06:34:40.721Z,20.20
2018-07-20T06:39:37.183Z,20.40
2018-07-20T06:42:05.540Z,20.50
2018-07-20T06:44:33.867Z,20.30
2018-07-20T06:47:02.201Z,20.30
2018-07-20T06:49:30.970Z,20.40
2018-07-20T06:51:59.312Z,20.80
2018-07-20T06:54:27.689Z,21.10
2018-07-20T06:56:56.034Z,21.60
2018-07-20T06:59:24.365Z,21.90
2018-07-20T07:01:52.719Z,22.40
2018-07-20T07:04:21.077Z,23.20
2018-07-20T07:06:49.437Z,24.00
2018-07-20T07:09:17.831Z,24.10
2018-07-20T07:11:46.149Z,24.80
2018-07-20T07:14:14.551Z,25.50
2018-07-20T07:16:42.851Z,25.60
2018-07-20T07:19:11.199Z,25.60
2018-07-20T07:21:39.581Z,25.50
2018-07-20T07:24:08.036Z,26.00
2018-07-20T07:26:36.383Z,26.20
2018-07-20T07:29:04.719Z,26.50
2018-07-20T07:31:33.232Z,26.70
2018-07-20T07:34:01.654Z,26.40
2018-07-20T07:36:30.059Z,25.90
2018-07-20T07:38:58.426Z,26.00
2018-07-20T07:41:26.821Z,26.00
2018-07-20T07:43:55.206Z,25.90
2018-07-20T07:46:23.597Z,25.70
2018-07-20T07:48:51.923Z,25.60
2018-07-20T07:51:20.293Z,26.30
2018-07-20T07:53:48.702Z,26.60
2018-07-20T07:56:17.062Z,26.80
2018-07-20T07:58:45.450Z,26.40
2018-07-20T08:01:13.803Z,25.90
2018-07-20T08:03:42.142Z,25.70
2018-07-20T08:06:10.451Z,25.70
2018-07-20T08:08:38.878Z,26.00
2018-07-20T08:11:07.289Z,26.40
2018-07-20T08:13:35.622Z,27.00
2018-07-20T08:16:03.960Z,27.50
2018-07-20T08:18:32.317Z,27.30
2018-07-20T08:21:00.732Z,27.10
2018-07-20T08:23:29.090Z,27.00
2018-07-20T08:25:57.498Z,27.00
2018-07-20T08:28:26.012Z,26.80
2018-07-20T08:30:54.415Z,26.70
2018-07-20T08:33:22.849Z,26.80
2018-07-20T08:35:52.080Z,26.80
2018-07-20T08:38:20.437Z,27.10
2018-07-20T08:40:48.827Z,27.50
2018-07-20T08:43:17.204Z,27.60
2018-07-20T08:45:45.546Z,27.50
2018-07-20T08:48:13.896Z,27.50
2018-07-20T08:50:43.294Z,27.30
2018-07-20T08:53:11.728Z,27.40
2018-07-20T08:55:40.057Z,27.60
2018-07-20T08:58:08.427Z,28.50
2018-07-20T09:00:36.788Z,28.50
2018-07-20T09:03:05.165Z,28.40
2018-07-20T09:05:33.576Z,28.40
2018-07-20T09:08:01.941Z,28.20
2018-07-20T09:10:30.284Z,28.40
2018-07-20T09:12:58.674Z,28.80
2018-07-20T09:15:27.045Z,29.00
2018-07-20T09:17:55.408Z,29.20
2018-07-20T09:20:23.775Z,29.30
2018-07-20T09:22:52.174Z,29.30
2018-07-20T09:27:48.681Z,29.00
2018-07-20T09:30:17.074Z,29.10
2018-07-20T09:32:45.409Z,29.20
2018-07-20T09:35:13.773Z,29.30
2018-07-20T09:37:42.216Z,29.40
2018-07-20T09:40:10.559Z,29.50
2018-07-20T09:42:38.889Z,29.50
2018-07-20T09:45:07.288Z,29.40
2018-07-20T09:47:35.649Z,29.60
2018-07-20T09:50:04.559Z,29.80
2018-07-20T09:52:32.868Z,29.80
2018-07-20T09:55:01.254Z,29.60
2018-07-20T09:57:29.719Z,29.70
2018-07-20T09:59:58.199Z,29.40
2018-07-20T10:02:26.757Z,29.20
2018-07-20T10:04:55.509Z,29.30
2018-07-20T10:07:24.088Z,29.80
2018-07-20T10:09:52.401Z,30.00
2018-07-20T10:12:20.750Z,30.20
2018-07-20T10:14:49.215Z,30.50
2018-07-20T10:17:17.596Z,30.60
2018-07-20T10:19:45.956Z,30.60
2018-07-20T10:22:14.352Z,30.70
2018-07-20T10:24:42.803Z,30.90
2018-07-20T10:29:38.754Z,31.10
2018-07-20T10:32:07.199Z,30.90
2018-07-20T10:34:35.701Z,30.60
2018-07-20T10:37:04.095Z,30.40
2018-07-20T10:39:33.625Z,30.30
2018-07-20T10:42:01.993Z,29.80
2018-07-20T10:44:30.411Z,29.50
2018-07-20T10:46:59.495Z,29.50
2018-07-20T10:49:27.851Z,29.00
2018-07-20T10:51:56.215Z,28.80
2018-07-20T10:54:24.589Z,28.90
2018-07-20T10:56:52.918Z,28.90
2018-07-20T10:59:21.268Z,29.30
2018-07-20T11:01:49.604Z,29.50
2018-07-20T11:04:18.002Z,30.00
2018-07-20T11:06:46.431Z,30.40
2018-07-20T11:09:14.768Z,30.40
2018-07-20T11:11:43.096Z,30.40
2018-07-20T11:14:11.678Z,30.60
2018-07-20T11:16:40.051Z,30.60
2018-07-20T11:19:08.396Z,30.40
2018-07-20T11:21:36.741Z,30.40
2018-07-20T11:24:05.133Z,30.40
2018-07-20T11:26:33.561Z,30.40
2018-07-20T11:29:01.944Z,30.10
2018-07-20T11:31:30.276Z,30.30
2018-07-20T11:33:58.638Z,30.50
2018-07-20T11:36:27.039Z,30.50
2018-07-20T11:38:55.358Z,30.60
2018-07-20T11:41:23.715Z,30.80
2018-07-20T11:43:52.101Z,30.70
2018-07-20T11:46:20.452Z,31.00
2018-07-20T11:48:48.842Z,31.00
2018-07-20T11:51:17.222Z,31.30
2018-07-20T11:53:45.614Z,31.90
2018-07-20T11:56:14.013Z,32.10
2018-07-20T11:58:42.358Z,32.10
2018-07-20T12:01:10.850Z,31.60
2018-07-20T12:03:39.234Z,31.60
2018-07-20T12:08:35.666Z,31.40
2018-07-20T12:11:04.001Z,31.40
2018-07-20T12:13:32.348Z,31.90
2018-07-20T12:18:28.771Z,33.00
2018-07-20T12:20:57.088Z,33.30
2018-07-20T12:23:25.446Z,33.30
2018-07-20T12:25:53.879Z,33.30
2018-07-20T12:28:22.247Z,33.20
2018-07-20T12:30:50.578Z,33.20
2018-07-20T12:33:18.914Z,32.80
2018-07-20T12:35:47.335Z,32.90
2018-07-20T12:38:15.712Z,32.00
2018-07-20T12:40:44.101Z,31.30
2018-07-20T12:43:12.541Z,30.90
2018-07-20T12:45:40.880Z,31.50
2018-07-20T12:48:09.266Z,32.90
2018-07-20T12:50:37.739Z,33.90
2018-07-20T12:53:06.090Z,34.50
2018-07-20T12:55:34.604Z,34.40
2018-07-20T12:58:03.145Z,34.30
2018-07-20T13:00:31.511Z,34.20
2018-07-20T13:02:59.900Z,34.60
2018-07-20T13:05:28.302Z,34.50
2018-07-20T13:07:56.781Z,34.90
2018-07-20T13:10:25.136Z,35.70
2018-07-20T13:12:53.621Z,36.00
2018-07-20T13:15:22.001Z,36.50
2018-07-20T13:17:50.432Z,35.90
2018-07-20T13:20:18.780Z,35.50
2018-07-20T13:22:47.201Z,35.40
2018-07-20T13:25:15.549Z,34.20
2018-07-20T13:27:43.971Z,32.50
2018-07-20T13:30:12.318Z,31.90
2018-07-20T13:32:40.756Z,32.30
2018-07-20T13:35:09.166Z,32.10
2018-07-20T13:37:37.647Z,31.60
2018-07-20T13:40:06.842Z,32.40
2018-07-20T13:42:35.236Z,32.90
2018-07-20T13:45:03.660Z,32.50
2018-07-20T13:47:32.084Z,31.90
2018-07-20T13:50:00.476Z,31.40
2018-07-20T13:52:28.846Z,31.00
2018-07-20T13:54:57.172Z,30.70
2018-07-20T13:57:25.577Z,30.00
2018-07-20T13:59:53.954Z,29.60
2018-07-20T14:02:22.321Z,29.50
2018-07-20T14:04:50.726Z,29.90
2018-07-20T14:07:19.128Z,31.00
2018-07-20T14:09:47.534Z,31.90
2018-07-20T14:12:15.952Z,31.70
2018-07-20T14:14:44.361Z,31.20
2018-07-20T14:17:12.728Z,31.20
2018-07-20T14:19:41.053Z,31.00
2018-07-20T14:22:09.689Z,30.50
2018-07-20T14:24:38.123Z,29.90
2018-07-20T14:27:06.568Z,29.70
2018-07-20T14:29:34.931Z,30.20
2018-07-20T14:32:03.395Z,31.60
2018-07-20T14:34:31.828Z,32.00
2018-07-20T14:37:00.253Z,31.70
2018-07-20T14:41:56.734Z,30.90
2018-07-20T14:44:25.117Z,30.60
2018-07-20T14:46:53.520Z,30.40
2018-07-20T14:49:21.871Z,30.50
2018-07-20T14:51:50.241Z,30.40
2018-07-20T14:54:18.793Z,30.30
2018-07-20T14:56:47.157Z,30.10
2018-07-20T14:59:15.521Z,29.80
2018-07-20T15:01:43.926Z,29.40
2018-07-20T15:04:12.277Z,29.20
2018-07-20T15:06:40.622Z,28.90
2018-07-20T15:09:10.873Z,28.80
2018-07-20T15:11:39.228Z,28.50
2018-07-20T15:14:07.576Z,28.30
2018-07-20T15:16:35.885Z,28.20
2018-07-20T15:19:04.235Z,28.10
2018-07-20T15:21:32.597Z,28.00
2018-07-20T15:24:01.047Z,27.90
2018-07-20T15:26:29.455Z,27.90
2018-07-20T15:28:57.778Z,27.90
2018-07-20T15:31:26.161Z,27.80
2018-07-20T15:33:54.515Z,27.80
2018-07-20T15:36:22.837Z,27.70
2018-07-20T15:38:51.210Z,27.70
2018-07-20T15:41:19.561Z,27.50
2018-07-20T15:43:47.993Z,27.50
2018-07-20T15:46:16.477Z,27.50
2018-07-20T15:48:44.825Z,27.50
2018-07-20T15:51:13.237Z,27.50
2018-07-20T15:53:41.624Z,27.50
2018-07-20T15:56:09.936Z,27.60
2018-07-20T15:58:38.309Z,27.60
2018-07-20T16:01:06.798Z,27.50
2018-07-20T16:03:35.133Z,27.60
2018-07-20T16:06:03.576Z,27.90
2018-07-20T16:08:31.898Z,28.20
2018-07-20T16:11:00.318Z,28.90
2018-07-20T16:13:28.853Z,29.10
2018-07-20T16:15:57.192Z,29.00
2018-07-20T16:18:25.554Z,28.70
2018-07-20T16:20:53.947Z,28.60
2018-07-20T16:23:22.306Z,28.80
2018-07-20T16:25:50.713Z,29.50
2018-07-20T16:28:19.065Z,30.00
2018-07-20T16:30:47.420Z,29.90
2018-07-20T16:33:15.771Z,29.60
2018-07-20T16:35:44.206Z,29.30
2018-07-20T16:38:12.666Z,29.20
2018-07-20T16:40:41.037Z,28.70
2018-07-20T16:43:09.416Z,28.30
2018-07-20T16:45:37.820Z,28.20
2018-07-20T16:48:06.153Z,28.30
2018-07-20T16:50:35.019Z,28.30
2018-07-20T16:53:03.427Z,28.50
2018-07-20T16:55:31.763Z,28.50
2018-07-20T16:58:00.120Z,28.40
2018-07-20T17:00:28.477Z,28.30
2018-07-20T17:02:56.861Z,28.40
2018-07-20T17:05:25.202Z,28.30
2018-07-20T17:07:53.614Z,28.80
2018-07-20T17:10:22.039Z,29.40
2018-07-20T17:12:50.405Z,29.70
2018-07-20T17:15:18.827Z,30.20
2018-07-20T17:17:47.165Z,30.10
2018-07-20T17:20:15.530Z,30.60
2018-07-20T17:22:43.967Z,30.90
2018-07-20T17:25:12.299Z,30.50
2018-07-20T17:27:40.653Z,29.50
2018-07-20T17:30:08.991Z,28.90
2018-07-20T17:32:37.361Z,28.30
2018-07-20T17:35:05.772Z,28.00
2018-07-20T17:37:34.140Z,27.80
2018-07-20T17:40:02.529Z,27.70
2018-07-20T17:42:30.925Z,27.70
2018-07-20T17:44:59.362Z,27.50
2018-07-20T17:47:27.749Z,27.40
2018-07-20T17:49:56.177Z,27.30
2018-07-20T17:52:24.604Z,27.30
2018-07-20T17:54:52.936Z,27.30
2018-07-20T17:57:21.283Z,27.30
2018-07-20T18:02:17.770Z,27.10
2018-07-20T18:04:46.173Z,26.90
2018-07-20T18:07:14.886Z,26.70
2018-07-20T18:09:43.246Z,26.60
2018-07-20T18:12:11.681Z,26.60
2018-07-20T18:14:40.036Z,26.50
2018-07-20T18:19:36.482Z,26.30
2018-07-20T18:22:04.993Z,26.30
2018-07-20T18:24:33.343Z,26.20
2018-07-20T18:27:01.724Z,26.00
2018-07-20T18:29:30.160Z,26.00
2018-07-20T18:31:58.524Z,26.00
2018-07-20T18:34:26.902Z,25.90
2018-07-20T18:36:55.290Z,25.90
2018-07-20T18:39:23.734Z,25.80
2018-07-20T18:41:52.063Z,25.70
2018-07-20T18:44:20.464Z,25.70
2018-07-20T18:46:48.892Z,25.60
2018-07-20T18:49:17.288Z,25.50
2018-07-20T18:51:45.662Z,25.50
2018-07-20T18:54:14.059Z,25.60
2018-07-20T18:59:10.488Z,25.40
2018-07-20T19:01:39.104Z,25.40
2018-07-20T19:04:07.471Z,25.30
2018-07-20T19:06:35.879Z,25.30
2018-07-20T19:09:06.231Z,25.20
2018-07-20T19:11:34.630Z,25.10
2018-07-20T19:14:02.991Z,25.10
2018-07-20T19:16:31.332Z,25.10
2018-07-20T19:18:59.865Z,25.00
2018-07-20T19:21:28.248Z,25.00
2018-07-20T19:23:56.707Z,25.00
2018-07-20T19:26:25.122Z,24.90
2018-07-20T19:28:53.476Z,24.80
2018-07-20T19:31:21.869Z,24.80
2018-07-20T19:33:50.246Z,24.80
2018-07-20T19:36:18.889Z,24.70
2018-07-20T19:38:47.245Z,24.60
2018-07-20T19:41:15.657Z,24.50
2018-07-20T19:43:44.037Z,24.40
2018-07-20T19:46:12.398Z,24.20
2018-07-20T19:48:40.750Z,24.20
2018-07-20T19:51:09.100Z,24.10
2018-07-20T19:53:37.672Z,24.10
2018-07-20T19:56:06.033Z,24.10
2018-07-20T19:58:34.345Z,23.60
2018-07-20T20:01:02.712Z,22.90
2018-07-20T20:03:31.069Z,22.30
2018-07-20T20:05:59.452Z,22.20
2018-07-20T20:08:27.881Z,22.10
2018-07-20T20:10:56.261Z,21.90
2018-07-20T20:13:24.714Z,21.90
2018-07-20T20:15:53.115Z,21.80
2018-07-20T20:18:21.521Z,21.70
2018-07-20T20:20:49.910Z,21.70
2018-07-20T20:23:18.284Z,21.70
2018-07-20T20:25:46.683Z,21.70
2018-07-20T20:28:15.118Z,21.60
2018-07-20T20:30:43.519Z,21.70
2018-07-20T20:33:12.006Z,21.50
2018-07-20T20:35:40.749Z,21.50
2018-07-20T20:38:09.168Z,21.50
2018-07-20T20:40:37.564Z,21.40
2018-07-20T20:43:05.946Z,21.40
2018-07-20T20:45:34.384Z,21.40
2018-07-20T20:48:02.762Z,21.30
2018-07-20T20:50:31.156Z,21.20
2018-07-20T20:52:59.530Z,21.10
2018-07-20T20:55:27.866Z,21.00
2018-07-20T20:57:56.213Z,20.90
2018-07-20T21:00:24.573Z,20.90
2018-07-20T21:02:52.973Z,20.80
2018-07-20T21:05:21.349Z,20.70
2018-07-20T21:07:49.735Z,20.50
2018-07-20T21:10:18.157Z,20.50
2018-07-20T21:15:14.558Z,20.40
2018-07-20T21:17:43.228Z,20.40
2018-07-20T21:20:11.611Z,20.50
2018-07-20T21:22:40.101Z,20.50
2018-07-20T21:25:08.510Z,20.60
2018-07-20T21:27:36.937Z,20.60
2018-07-20T21:30:05.470Z,20.50
2018-07-20T21:32:33.805Z,20.40
2018-07-20T21:35:02.185Z,20.30
2018-07-20T21:37:30.658Z,20.30
2018-07-20T21:39:59.072Z,20.30
2018-07-20T21:42:27.420Z,20.30
2018-07-20T21:44:55.803Z,20.30
2018-07-20T21:47:24.177Z,20.30
2018-07-20T21:49:52.527Z,20.30
2018-07-20T21:52:20.972Z,20.30
2018-07-20T21:54:49.326Z,20.30
2018-07-20T21:57:17.699Z,20.30
2018-07-20T21:59:46.044Z,20.30
2018-07-20T22:02:14.369Z,20.30
2018-07-20T22:04:43.069Z,20.40
2018-07-20T22:07:11.628Z,20.30
2018-07-20T22:09:40.027Z,20.30
2018-07-20T22:12:08.372Z,20.30
2018-07-20T22:14:36.758Z,20.20
2018-07-20T22:17:05.148Z,20.20
2018-07-20T22:19:33.543Z,20.20
2018-07-20T22:22:01.978Z,20.30
2018-07-20T22:24:30.312Z,20.30
2018-07-20T22:26:58.638Z,20.30
2018-07-20T22:29:26.979Z,20.30
2018-07-20T22:31:55.328Z,20.30
2018-07-20T22:34:23.671Z,20.30
2018-07-20T22:36:52.048Z,20.30
2018-07-20T22:39:20.431Z,20.30
2018-07-20T22:41:48.785Z,20.30
2018-07-20T22:44:17.127Z,20.40
2018-07-20T22:46:45.529Z,20.30
2018-07-20T22:49:13.845Z,20.30
2018-07-20T22:51:42.337Z,20.20
2018-07-20T22:56:38.795Z,20.30
2018-07-20T22:59:07.165Z,20.20
2018-07-20T23:01:35.507Z,20.20
2018-07-20T23:04:03.836Z,20.20
2018-07-20T23:06:32.206Z,20.10
2018-07-20T23:16:24.823Z,19.90
2018-07-20T23:18:53.135Z,19.90
2018-07-20T23:21:21.444Z,19.90
2018-07-20T23:23:49.821Z,19.80
2018-07-20T23:26:18.137Z,19.80
2018-07-20T23:28:46.437Z,19.80
2018-07-20T23:31:14.753Z,19.80
2018-07-20T23:33:43.102Z,19.70
2018-07-20T23:36:11.666Z,19.70
2018-07-20T23:38:40.001Z,19.60
2018-07-20T23:41:08.351Z,19.60
2018-07-20T23:43:36.680Z,19.50
2018-07-20T23:46:05.008Z,19.50
2018-07-20T23:48:33.473Z,19.30
2018-07-20T23:51:01.779Z,19.30
2018-07-20T23:53:30.183Z,19.10
2018-07-20T23:55:58.524Z,19.10
2018-07-20T23:58:26.850Z,19.00
